Time,TemperatureF,DewpointF,PressureIn,WindDirection,WindDirectionDegrees,WindSpeedMPH,WindSpeedGustMPH,Humidity,HourlyPrecipIn,Conditions,Clouds,dailyrainin,SoftwareType,DateUTC
2013-02-03 00:00:00,14.4,10.5,30.06,ESE,113,0.0,0.0,84,0.00,,,0.00,VWS V14.00,2013-02-03 05:00:00,
2013-02-03 00:01:00,14.4,10.5,30.06,ESE,118,0.0,0.0,84,0.00,,,0.00,VWS V14.00,2013-02-03 05:01:00,
2013-02-03 00:06:00,14.5,10.3,30.06,ESE,114,0.0,0.0,83,0.00,,,0.00,VWS V14.00,2013-02-03 05:06:00,
2013-02-03 00:11:00,14.5,10.3,30.06,ESE,113,0.0,0.0,83,0.00,,,0.00,VWS V14.00,2013-02-03 05:11:00,
2013-02-03 00:16:00,14.5,10.3,30.06,ESE,113,0.0,0.0,83,0.00,,,0.00,VWS V14.00,2013-02-03 05:16:00,
2013-02-03 00:22:00,14.5,10.3,30.07,ESE,113,0.0,0.0,83,0.00,,,0.00,VWS V14.00,2013-02-03 05:22:00,
2013-02-03 00:27:00,14.5,10.3,30.06,ESE,113,0.0,0.0,83,0.00,,,0.00,VWS V14.00,2013-02-03 05:27:00,
2013-02-03 00:32:00,14.4,10.2,30.06,ESE,113,0.0,0.0,83,0.00,,,0.00,VWS V14.00,2013-02-03 05:32:00,
2013-02-03 00:37:00,14.4,10.5,30.06,ESE,113,0.0,0.0,84,0.00,,,0.00,VWS V14.00,2013-02-03 05:37:00,
2013-02-03 00:42:00,14.4,10.5,30.06,ESE,113,0.0,0.0,84,0.00,,,0.00,VWS V14.00,2013-02-03 05:42:00,
2013-02-03 00:47:00,14.3,10.4,30.06,ESE,113,0.0,0.0,84,0.00,,,0.00,VWS V14.00,2013-02-03 05:47:00,
2013-02-03 00:52:00,14.3,10.1,30.06,ESE,113,0.0,0.0,83,0.00,,,0.00,VWS V14.00,2013-02-03 05:52:00,
2013-02-03 00:57:00,14.2,10.0,30.06,ESE,112,0.0,0.0,83,0.00,,,0.00,VWS V14.00,2013-02-03 05:57:00,
2013-02-03 01:02:00,14.2,10.0,30.06,ESE,114,0.0,0.0,83,0.00,,,0.00,VWS V14.00,2013-02-03 06:02:00,
2013-02-03 01:07:00,14.2,10.0,30.05,ESE,113,1.0,2.0,83,0.00,,,0.00,VWS V14.00,2013-02-03 06:07:00,
2013-02-03 01:12:00,14.1,9.6,30.05,ESE,111,1.0,3.0,82,0.00,,,0.00,VWS V14.00,2013-02-03 06:12:00,
2013-02-03 01:17:00,14.1,9.6,30.05,East,100,0.0,3.0,82,0.00,,,0.00,VWS V14.00,2013-02-03 06:17:00,
2013-02-03 01:22:00,14.0,9.3,30.05,ESE,102,0.0,3.0,81,0.00,,,0.00,VWS V14.00,2013-02-03 06:22:00,
2013-02-03 01:27:00,14.0,9.3,30.05,ESE,102,0.0,3.0,81,0.00,,,0.00,VWS V14.00,2013-02-03 06:27:00,
2013-02-03 01:32:00,13.9,9.2,30.04,ESE,102,0.0,3.0,81,0.00,,,0.00,VWS V14.00,2013-02-03 06:32:00,
2013-02-03 01:37:00,13.7,9.0,30.05,ESE,102,0.0,0.0,81,0.00,,,0.00,VWS V14.00,2013-02-03 06:37:00,
2013-02-03 01:42:00,13.5,8.8,30.05,East,101,0.0,0.0,81,0.00,,,0.00,VWS V14.00,2013-02-03 06:42:00,
2013-02-03 01:47:00,13.3,8.6,30.05,ESE,102,0.0,0.0,81,0.00,,,0.00,VWS V14.00,2013-02-03 06:47:00,
2013-02-03 01:52:00,13.2,8.8,30.04,ESE,102,0.0,0.0,82,0.00,,,0.00,VWS V14.00,2013-02-03 06:52:00,
2013-02-03 01:57:00,13.2,9.0,30.04,ESE,102,0.0,0.0,83,0.00,,,0.00,VWS V14.00,2013-02-03 06:57:00,
2013-02-03 02:02:00,13.2,9.0,30.03,East,101,0.0,0.0,83,0.00,,,0.00,VWS V14.00,2013-02-03 07:02:00,
2013-02-03 02:07:00,13.2,9.0,30.03,ESE,102,0.0,0.0,83,0.00,,,0.00,VWS V14.00,2013-02-03 07:07:00,
2013-02-03 02:12:00,13.1,8.9,30.03,East,101,0.0,0.0,83,0.00,,,0.00,VWS V14.00,2013-02-03 07:12:00,
2013-02-03 02:17:00,13.1,9.2,30.03,ESE,102,0.0,0.0,84,0.00,,,0.00,VWS V14.00,2013-02-03 07:17:00,
2013-02-03 02:22:00,13.2,9.3,30.03,ESE,102,0.0,0.0,84,0.00,,,0.00,VWS V14.00,2013-02-03 07:22:00,
2013-02-03 02:27:00,13.1,9.2,30.02,East,101,0.0,0.0,84,0.00,,,0.00,VWS V14.00,2013-02-03 07:27:00,
2013-02-03 02:32:00,13.2,9.3,30.02,ESE,102,0.0,0.0,84,0.00,,,0.00,VWS V14.00,2013-02-03 07:32:00,
2013-02-03 02:37:00,13.2,9.3,30.03,East,101,0.0,0.0,84,0.00,,,0.00,VWS V14.00,2013-02-03 07:37:00,
2013-02-03 02:42:00,13.1,9.2,30.03,ESE,102,0.0,0.0,84,0.00,,,0.00,VWS V14.00,2013-02-03 07:42:00,
2013-02-03 02:47:00,13.1,9.2,30.03,ESE,102,0.0,0.0,84,0.00,,,0.00,VWS V14.00,2013-02-03 07:47:00,
2013-02-03 02:52:00,13.2,9.3,30.03,East,101,0.0,0.0,84,0.00,,,0.00,VWS V14.00,2013-02-03 07:52:00,
2013-02-03 02:57:00,13.2,9.3,30.03,ESE,102,0.0,0.0,84,0.00,,,0.00,VWS V14.00,2013-02-03 07:57:00,
2013-02-03 03:02:00,13.1,9.2,30.02,East,101,0.0,0.0,84,0.00,,,0.00,VWS V14.00,2013-02-03 08:02:00,
2013-02-03 03:07:00,13.1,9.2,30.02,East,101,0.0,0.0,84,0.00,,,0.00,VWS V14.00,2013-02-03 08:07:00,
2013-02-03 03:12:00,13.1,9.2,30.02,ESE,102,0.0,0.0,84,0.00,,,0.00,VWS V14.00,2013-02-03 08:12:00,
2013-02-03 03:17:00,13.0,9.4,30.02,East,101,0.0,0.0,85,0.00,,,0.00,VWS V14.00,2013-02-03 08:17:00,
2013-02-03 03:22:00,13.1,9.4,30.02,East,101,0.0,0.0,85,0.00,,,0.00,VWS V14.00,2013-02-03 08:22:00,
2013-02-03 03:27:00,13.1,9.4,30.02,East,101,0.0,0.0,85,0.00,,,0.00,VWS V14.00,2013-02-03 08:27:00,
2013-02-03 03:32:00,13.1,9.4,30.02,East,101,0.0,0.0,85,0.00,,,0.00,VWS V14.00,2013-02-03 08:32:00,
2013-02-03 03:37:00,13.2,9.8,30.02,East,101,0.0,0.0,86,0.00,,,0.00,VWS V14.00,2013-02-03 08:37:00,
2013-02-03 03:42:00,13.1,9.7,30.01,East,100,0.0,0.0,86,0.00,,,0.00,VWS V14.00,2013-02-03 08:42:00,
2013-02-03 03:47:00,13.1,9.7,30.01,East,101,0.0,0.0,86,0.00,,,0.00,VWS V14.00,2013-02-03 08:47:00,
2013-02-03 03:52:00,13.1,9.7,30.01,East,100,0.0,0.0,86,0.00,,,0.00,VWS V14.00,2013-02-03 08:52:00,
2013-02-03 03:57:00,13.1,9.7,30.01,East,100,0.0,0.0,86,0.00,,,0.00,VWS V14.00,2013-02-03 08:57:00,
2013-02-03 04:02:00,13.1,9.7,30.01,East,101,0.0,0.0,86,0.00,,,0.00,VWS V14.00,2013-02-03 09:02:00,
2013-02-03 04:07:00,13.2,9.8,30.00,East,100,0.0,0.0,86,0.00,,,0.00,VWS V14.00,2013-02-03 09:07:00,
2013-02-03 04:12:00,13.1,9.7,30.00,East,100,0.0,0.0,86,0.00,,,0.00,VWS V14.00,2013-02-03 09:12:00,
2013-02-03 04:17:00,13.1,9.7,30.00,East,100,0.0,0.0,86,0.00,,,0.00,VWS V14.00,2013-02-03 09:17:00,
2013-02-03 04:22:00,13.0,9.6,29.99,East,100,0.0,0.0,86,0.00,,,0.00,VWS V14.00,2013-02-03 09:22:00,
2013-02-03 04:27:00,13.0,9.6,29.99,East,100,0.0,0.0,86,0.00,,,0.00,VWS V14.00,2013-02-03 09:27:00,
2013-02-03 04:32:00,13.0,9.6,29.99,ESE,102,0.0,0.0,86,0.00,,,0.00,VWS V14.00,2013-02-03 09:32:00,
2013-02-03 04:37:00,13.0,9.6,29.99,ESE,102,0.0,0.0,86,0.00,,,0.00,VWS V14.00,2013-02-03 09:37:00,
2013-02-03 04:42:00,12.9,9.5,29.99,ESE,102,0.0,0.0,86,0.00,,,0.00,VWS V14.00,2013-02-03 09:42:00,
2013-02-03 04:47:00,12.9,9.5,29.99,East,101,0.0,0.0,86,0.00,,,0.00,VWS V14.00,2013-02-03 09:47:00,
2013-02-03 04:52:00,12.9,9.5,29.99,ESE,102,0.0,0.0,86,0.00,,,0.00,VWS V14.00,2013-02-03 09:52:00,
2013-02-03 04:57:00,12.9,9.8,29.99,East,101,0.0,0.0,87,0.00,,,0.00,VWS V14.00,2013-02-03 09:57:00,
2013-02-03 05:02:00,12.9,9.8,29.99,East,101,0.0,0.0,87,0.00,,,0.00,VWS V14.00,2013-02-03 10:02:00,
2013-02-03 05:07:00,12.8,9.7,29.98,ESE,102,0.0,0.0,87,0.00,,,0.00,VWS V14.00,2013-02-03 10:07:00,
2013-02-03 05:12:00,12.9,9.8,29.98,ESE,102,0.0,0.0,87,0.00,,,0.00,VWS V14.00,2013-02-03 10:12:00,
2013-02-03 05:17:00,12.9,9.8,29.98,East,101,0.0,0.0,87,0.00,,,0.00,VWS V14.00,2013-02-03 10:17:00,
2013-02-03 05:22:00,12.9,9.8,29.98,East,101,0.0,0.0,87,0.00,,,0.00,VWS V14.00,2013-02-03 10:22:00,
2013-02-03 05:27:00,12.9,9.8,29.98,ESE,102,0.0,0.0,87,0.00,,,0.00,VWS V14.00,2013-02-03 10:27:00,
2013-02-03 05:32:00,12.9,9.8,29.98,ESE,102,0.0,0.0,87,0.00,,,0.00,VWS V14.00,2013-02-03 10:32:00,
2013-02-03 05:37:00,13.0,9.9,29.98,East,101,0.0,0.0,87,0.00,,,0.00,VWS V14.00,2013-02-03 10:37:00,
2013-02-03 05:42:00,13.0,9.9,29.98,ESE,102,0.0,0.0,87,0.00,,,0.00,VWS V14.00,2013-02-03 10:42:00,
2013-02-03 05:47:00,13.0,9.9,29.98,East,101,0.0,0.0,87,0.00,,,0.00,VWS V14.00,2013-02-03 10:47:00,
2013-02-03 05:52:00,13.0,9.9,29.98,ESE,102,0.0,0.0,87,0.00,,,0.00,VWS V14.00,2013-02-03 10:52:00,
2013-02-03 05:57:00,13.1,10.2,29.98,East,101,0.0,0.0,88,0.00,,,0.00,VWS V14.00,2013-02-03 10:57:00,
2013-02-03 06:02:00,13.1,10.2,29.98,ESE,102,0.0,0.0,88,0.00,,,0.00,VWS V14.00,2013-02-03 11:02:00,
2013-02-03 06:07:00,13.2,10.3,29.98,ESE,102,0.0,0.0,88,0.00,,,0.00,VWS V14.00,2013-02-03 11:07:00,
2013-02-03 06:12:00,13.3,10.4,29.98,East,101,0.0,0.0,88,0.00,,,0.00,VWS V14.00,2013-02-03 11:12:00,
2013-02-03 06:17:00,13.3,10.7,29.98,SW,218,0.0,0.0,89,0.00,,,0.00,VWS V14.00,2013-02-03 11:17:00,
2013-02-03 06:22:00,13.4,10.8,29.98,West,274,0.0,1.0,89,0.00,,,0.00,VWS V14.00,2013-02-03 11:22:00,
2013-02-03 06:27:00,13.4,10.8,29.98,West,271,1.0,2.0,89,0.00,,,0.00,VWS V14.00,2013-02-03 11:27:00,
2013-02-03 06:32:00,13.3,10.7,29.98,West,266,1.0,2.0,89,0.00,,,0.00,VWS V14.00,2013-02-03 11:32:00,
2013-02-03 06:37:00,13.2,10.6,29.98,West,277,0.0,1.0,89,0.00,,,0.00,VWS V14.00,2013-02-03 11:37:00,
2013-02-03 06:42:00,13.1,10.5,29.98,WSW,258,1.0,2.0,89,0.00,,,0.00,VWS V14.00,2013-02-03 11:42:00,
2013-02-03 06:47:00,13.0,10.4,29.98,West,272,0.0,2.0,89,0.00,,,0.00,VWS V14.00,2013-02-03 11:47:00,
2013-02-03 06:52:00,12.9,10.3,29.98,WNW,287,1.0,2.0,89,0.00,,,0.00,VWS V14.00,2013-02-03 11:52:00,
2013-02-03 06:57:00,12.8,10.4,29.97,WNW,283,0.0,2.0,90,0.00,,,0.00,VWS V14.00,2013-02-03 11:57:00,
2013-02-03 07:02:00,12.7,10.3,29.97,West,267,0.0,2.0,90,0.00,,,0.00,VWS V14.00,2013-02-03 12:02:00,
2013-02-03 07:07:00,12.5,10.1,29.97,West,267,0.0,0.0,90,0.00,,,0.00,VWS V14.00,2013-02-03 12:07:00,
2013-02-03 07:12:00,12.4,10.0,29.97,West,267,0.0,0.0,90,0.00,,,0.00,VWS V14.00,2013-02-03 12:12:00,
2013-02-03 07:17:00,12.3,9.9,29.97,West,277,0.0,0.0,90,0.00,,,0.00,VWS V14.00,2013-02-03 12:17:00,
2013-02-03 07:22:00,12.3,9.9,29.98,West,274,0.0,1.0,90,0.00,,,0.00,VWS V14.00,2013-02-03 12:22:00,
2013-02-03 07:27:00,12.4,10.0,29.98,West,277,1.0,1.0,90,0.00,,,0.00,VWS V14.00,2013-02-03 12:27:00,
2013-02-03 07:32:00,12.4,10.0,29.98,West,277,1.0,2.0,90,0.00,,,0.00,VWS V14.00,2013-02-03 12:32:00,
2013-02-03 07:37:00,12.5,10.1,29.98,West,273,0.0,1.0,90,0.00,,,0.00,VWS V14.00,2013-02-03 12:37:00,
2013-02-03 07:42:00,12.5,10.1,29.98,West,281,1.0,1.0,90,0.00,,,0.00,VWS V14.00,2013-02-03 12:42:00,
2013-02-03 07:47:00,12.6,10.2,29.98,West,276,1.0,1.0,90,0.00,,,0.00,VWS V14.00,2013-02-03 12:47:00,
2013-02-03 07:52:00,12.6,10.2,29.98,WSW,240,2.0,3.0,90,0.00,,,0.00,VWS V14.00,2013-02-03 12:52:00,
2013-02-03 07:57:00,12.6,10.2,29.98,West,279,1.0,3.0,90,0.00,,,0.00,VWS V14.00,2013-02-03 12:57:00,
2013-02-03 08:02:00,12.7,10.3,29.99,West,269,0.0,3.0,90,0.00,,,0.00,VWS V14.00,2013-02-03 13:02:00,
2013-02-03 08:07:00,12.7,10.3,29.99,West,279,0.0,1.0,90,0.00,,,0.00,VWS V14.00,2013-02-03 13:07:00,
2013-02-03 08:12:00,12.8,10.4,29.99,West,268,0.0,1.0,90,0.00,,,0.00,VWS V14.00,2013-02-03 13:12:00,
2013-02-03 08:17:00,12.8,10.4,29.99,West,279,0.0,2.0,90,0.00,,,0.00,VWS V14.00,2013-02-03 13:17:00,
2013-02-03 08:22:00,12.9,10.5,29.99,West,271,1.0,2.0,90,0.00,,,0.00,VWS V14.00,2013-02-03 13:22:00,
2013-02-03 08:27:00,12.9,10.3,30.00,West,276,2.0,2.0,89,0.00,,,0.00,VWS V14.00,2013-02-03 13:27:00,
2013-02-03 08:32:00,13.0,10.4,29.99,West,266,1.0,5.0,89,0.00,,,0.00,VWS V14.00,2013-02-03 13:32:00,
2013-02-03 08:37:00,13.1,10.2,30.00,WNW,294,1.0,1.0,88,0.00,,,0.00,VWS V14.00,2013-02-03 13:37:00,
2013-02-03 08:42:00,13.1,10.2,30.00,West,264,1.0,2.0,88,0.00,,,0.00,VWS V14.00,2013-02-03 13:42:00,
2013-02-03 08:47:00,13.2,10.3,30.00,West,264,1.0,4.0,88,0.00,,,0.00,VWS V14.00,2013-02-03 13:47:00,
2013-02-03 08:52:00,13.2,10.1,29.99,WNW,290,1.0,4.0,87,0.00,,,0.00,VWS V14.00,2013-02-03 13:52:00,
2013-02-03 08:57:00,13.3,10.2,29.99,West,279,0.0,4.0,87,0.00,,,0.00,VWS V14.00,2013-02-03 13:57:00,
2013-02-03 09:02:00,13.5,10.6,30.00,West,274,0.0,4.0,88,0.00,,,0.00,VWS V14.00,2013-02-03 14:02:00,
2013-02-03 09:07:00,13.6,10.5,29.99,West,266,0.0,1.0,87,0.00,,,0.00,VWS V14.00,2013-02-03 14:07:00,
2013-02-03 09:12:00,13.7,10.6,29.99,WSW,239,1.0,4.0,87,0.00,,,0.00,VWS V14.00,2013-02-03 14:12:00,
2013-02-03 09:17:00,13.7,10.6,30.00,SSW,195,0.0,4.0,87,0.00,,,0.00,VWS V14.00,2013-02-03 14:17:00,
2013-02-03 09:22:00,14.0,10.9,29.99,West,264,0.0,4.0,87,0.00,,,0.00,VWS V14.00,2013-02-03 14:22:00,
2013-02-03 09:27:00,14.2,11.1,30.00,WNW,288,2.0,4.0,87,0.00,,,0.00,VWS V14.00,2013-02-03 14:27:00,
2013-02-03 09:32:00,14.4,11.0,29.99,WNW,283,2.0,4.0,86,0.00,,,0.00,VWS V14.00,2013-02-03 14:32:00,
2013-02-03 09:37:00,14.3,10.6,29.99,West,269,2.0,6.0,85,0.00,,,0.00,VWS V14.00,2013-02-03 14:37:00,
2013-02-03 09:42:00,14.3,10.6,29.99,WSW,258,2.0,6.0,85,0.00,,,0.00,VWS V14.00,2013-02-03 14:42:00,
2013-02-03 09:47:00,14.5,10.8,29.99,WNW,288,2.0,6.0,85,0.00,,,0.00,VWS V14.00,2013-02-03 14:47:00,
2013-02-03 09:52:00,14.6,10.9,29.99,West,263,0.0,6.0,85,0.00,,,0.00,VWS V14.00,2013-02-03 14:52:00,
2013-02-03 09:57:00,15.0,11.3,29.99,WSW,258,0.0,6.0,85,0.00,,,0.00,VWS V14.00,2013-02-03 14:57:00,
2013-02-03 10:02:00,15.2,11.5,29.99,SW,230,0.0,6.0,85,0.00,,,0.00,VWS V14.00,2013-02-03 15:02:00,
2013-02-03 10:07:00,15.7,12.0,29.98,West,273,2.0,2.0,85,0.00,,,0.00,VWS V14.00,2013-02-03 15:07:00,
2013-02-03 10:12:00,16.0,12.0,29.98,West,276,1.0,2.0,84,0.00,,,0.00,VWS V14.00,2013-02-03 15:12:00,
2013-02-03 10:17:00,15.9,11.9,29.98,WSW,256,1.0,3.0,84,0.00,,,0.00,VWS V14.00,2013-02-03 15:17:00,
2013-02-03 10:22:00,15.9,11.7,29.98,West,279,1.0,3.0,83,0.00,,,0.00,VWS V14.00,2013-02-03 15:22:00,
2013-02-03 10:27:00,15.8,11.8,29.98,West,277,2.0,3.0,84,0.00,,,0.00,VWS V14.00,2013-02-03 15:27:00,
2013-02-03 10:32:00,15.8,11.8,29.99,WNW,282,1.0,5.0,84,0.00,,,0.00,VWS V14.00,2013-02-03 15:32:00,
2013-02-03 10:37:00,16.0,12.3,29.99,WNW,287,2.0,3.0,85,0.00,,,0.00,VWS V14.00,2013-02-03 15:37:00,
2013-02-03 10:42:00,16.3,12.3,29.99,West,272,2.0,4.0,84,0.00,,,0.00,VWS V14.00,2013-02-03 15:42:00,
2013-02-03 10:47:00,16.2,12.2,29.98,WNW,291,2.0,8.0,84,0.00,,,0.00,VWS V14.00,2013-02-03 15:47:00,
2013-02-03 10:52:00,16.2,12.5,29.99,West,277,3.0,8.0,85,0.00,,,0.00,VWS V14.00,2013-02-03 15:52:00,
2013-02-03 10:57:00,16.2,12.5,29.99,West,277,3.0,8.0,85,0.00,,,0.00,VWS V14.00,2013-02-03 15:57:00,
2013-02-03 11:02:00,16.4,12.7,29.99,West,276,4.0,8.0,85,0.00,,,0.00,VWS V14.00,2013-02-03 16:02:00,
2013-02-03 11:07:00,16.4,12.7,29.99,West,263,6.0,7.0,85,0.00,,,0.00,VWS V14.00,2013-02-03 16:07:00,
2013-02-03 11:12:00,16.1,12.4,29.99,West,277,3.0,7.0,85,0.00,,,0.00,VWS V14.00,2013-02-03 16:12:00,
2013-02-03 11:17:00,16.2,12.8,29.99,WNW,283,3.0,7.0,86,0.00,,,0.00,VWS V14.00,2013-02-03 16:17:00,
2013-02-03 11:22:00,16.3,12.9,29.99,West,274,2.0,7.0,86,0.00,,,0.00,VWS V14.00,2013-02-03 16:22:00,
2013-02-03 11:27:00,16.5,13.1,29.99,WNW,287,2.0,7.0,86,0.00,,,0.00,VWS V14.00,2013-02-03 16:27:00,
2013-02-03 11:32:00,16.6,13.1,29.99,West,272,2.0,7.0,86,0.00,,,0.00,VWS V14.00,2013-02-03 16:32:00,
2013-02-03 11:37:00,16.9,13.4,29.98,West,274,1.0,5.0,86,0.00,,,0.00,VWS V14.00,2013-02-03 16:37:00,
2013-02-03 11:42:00,17.1,13.4,29.98,West,269,4.0,6.0,85,0.00,,,0.00,VWS V14.00,2013-02-03 16:42:00,
2013-02-03 11:47:00,17.3,13.6,29.98,West,271,2.0,6.0,85,0.00,,,0.00,VWS V14.00,2013-02-03 16:47:00,
2013-02-03 11:52:00,17.7,14.0,29.98,WNW,288,1.0,6.0,85,0.00,,,0.00,VWS V14.00,2013-02-03 16:52:00,
2013-02-03 11:57:00,17.9,13.9,29.98,West,270,3.0,6.0,84,0.00,,,0.00,VWS V14.00,2013-02-03 16:57:00,
2013-02-03 12:02:00,18.0,14.0,29.98,West,278,2.0,6.0,84,0.00,,,0.00,VWS V14.00,2013-02-03 17:02:00,
2013-02-03 12:07:00,18.2,14.2,29.98,West,267,3.0,4.0,84,0.00,,,0.00,VWS V14.00,2013-02-03 17:07:00,
2013-02-03 12:12:00,18.5,14.5,29.98,West,266,1.0,5.0,84,0.00,,,0.00,VWS V14.00,2013-02-03 17:12:00,
2013-02-03 12:17:00,19.0,15.0,29.98,NW,304,2.0,5.0,84,0.00,,,0.00,VWS V14.00,2013-02-03 17:17:00,
2013-02-03 12:22:00,19.4,15.6,29.98,West,263,5.0,5.0,85,0.00,,,0.00,VWS V14.00,2013-02-03 17:22:00,
2013-02-03 12:27:00,19.8,15.8,29.97,West,271,5.0,5.0,84,0.00,,,0.00,VWS V14.00,2013-02-03 17:27:00,
2013-02-03 12:32:00,20.1,16.0,29.97,WNW,282,2.0,6.0,84,0.00,,,0.00,VWS V14.00,2013-02-03 17:32:00,
2013-02-03 12:37:00,20.2,15.9,29.97,West,266,3.0,8.0,83,0.00,,,0.00,VWS V14.00,2013-02-03 17:37:00,
2013-02-03 12:42:00,20.2,15.9,29.98,WNW,295,2.0,8.0,83,0.00,,,0.00,VWS V14.00,2013-02-03 17:42:00,
2013-02-03 12:47:00,20.3,16.0,29.97,West,277,2.0,8.0,83,0.00,,,0.00,VWS V14.00,2013-02-03 17:47:00,
2013-02-03 12:52:00,20.5,16.2,29.97,West,266,3.0,8.0,83,0.00,,,0.00,VWS V14.00,2013-02-03 17:52:00,
2013-02-03 12:57:00,20.6,16.3,29.97,West,281,1.0,8.0,83,0.00,,,0.00,VWS V14.00,2013-02-03 17:57:00,
2013-02-03 13:02:00,20.8,16.5,29.97,West,271,1.0,8.0,83,0.00,,,0.00,VWS V14.00,2013-02-03 18:02:00,
2013-02-03 13:07:00,20.6,16.0,29.97,West,281,3.0,5.0,82,0.00,,,0.00,VWS V14.00,2013-02-03 18:07:00,
2013-02-03 13:12:00,20.5,16.2,29.97,West,270,2.0,6.0,83,0.00,,,0.00,VWS V14.00,2013-02-03 18:12:00,
2013-02-03 13:17:00,20.5,16.4,29.97,West,260,3.0,6.0,84,0.00,,,0.00,VWS V14.00,2013-02-03 18:17:00,
2013-02-03 13:22:00,20.5,16.4,29.97,WNW,285,2.0,6.0,84,0.00,,,0.00,VWS V14.00,2013-02-03 18:22:00,
2013-02-03 13:27:00,20.5,16.4,29.97,West,265,6.0,6.0,84,0.00,,,0.00,VWS V14.00,2013-02-03 18:27:00,
2013-02-03 13:32:00,20.3,16.2,29.97,WSW,257,0.0,6.0,84,0.00,,,0.00,VWS V14.00,2013-02-03 18:32:00,
2013-02-03 13:37:00,20.6,16.8,29.97,West,259,0.0,3.0,85,0.00,,,0.00,VWS V14.00,2013-02-03 18:37:00,
2013-02-03 13:42:00,20.9,17.4,29.97,WNW,283,0.0,3.0,86,0.00,,,0.00,VWS V14.00,2013-02-03 18:42:00,
2013-02-03 13:46:00,20.9,16.8,29.97,West,276,1.0,5.0,84,0.00,,,0.00,VWS V14.00,2013-02-03 18:46:00,
2013-02-03 13:51:00,20.7,16.6,29.97,SW,233,0.0,5.0,84,0.00,,,0.00,VWS V14.00,2013-02-03 18:51:00,
2013-02-03 13:56:00,20.8,17.0,29.97,West,278,1.0,5.0,85,0.00,,,0.00,VWS V14.00,2013-02-03 18:56:00,
2013-02-03 14:01:00,20.9,17.1,29.97,WNW,287,2.0,5.0,85,0.00,,,0.00,VWS V14.00,2013-02-03 19:01:00,
2013-02-03 14:06:00,20.8,17.0,29.97,SW,214,0.0,3.0,85,0.00,,,0.00,VWS V14.00,2013-02-03 19:06:00,
2013-02-03 14:11:00,20.9,17.4,29.97,West,275,3.0,4.0,86,0.00,,,0.00,VWS V14.00,2013-02-03 19:11:00,
2013-02-03 14:16:00,20.8,17.0,29.97,WNW,285,1.0,5.0,85,0.00,,,0.00,VWS V14.00,2013-02-03 19:16:00,
2013-02-03 14:21:00,20.8,17.5,29.97,West,270,3.0,6.0,87,0.00,,,0.00,VWS V14.00,2013-02-03 19:21:00,
2013-02-03 14:26:00,20.7,17.5,29.97,WNW,293,2.0,7.0,87,0.00,,,0.00,VWS V14.00,2013-02-03 19:26:00,
2013-02-03 14:31:00,20.7,17.7,29.98,WNW,287,4.0,7.0,88,0.00,,,0.00,VWS V14.00,2013-02-03 19:31:00,
2013-02-03 14:36:00,20.8,18.1,29.98,West,261,3.0,4.0,89,0.00,,,0.00,VWS V14.00,2013-02-03 19:36:00,
2013-02-03 14:41:00,20.9,18.4,29.98,WNW,284,2.0,5.0,90,0.00,,,0.00,VWS V14.00,2013-02-03 19:41:00,
2013-02-03 14:46:00,21.0,18.5,29.98,WNW,298,4.0,6.0,90,0.00,,,0.00,VWS V14.00,2013-02-03 19:46:00,
2013-02-03 14:51:00,21.1,18.6,29.98,WNW,295,5.0,7.0,90,0.00,,,0.00,VWS V14.00,2013-02-03 19:51:00,
2013-02-03 14:56:00,21.1,18.6,29.98,WNW,287,3.0,9.0,90,0.00,,,0.00,VWS V14.00,2013-02-03 19:56:00,
2013-02-03 15:01:00,21.0,18.5,29.98,West,276,3.0,10.0,90,0.00,,,0.00,VWS V14.00,2013-02-03 20:01:00,
2013-02-03 15:06:00,20.8,18.3,29.99,WNW,293,3.0,7.0,90,0.00,,,0.00,VWS V14.00,2013-02-03 20:06:00,
2013-02-03 15:11:00,20.7,18.5,29.99,West,276,4.0,7.0,91,0.00,,,0.00,VWS V14.00,2013-02-03 20:11:00,
2013-02-03 15:16:00,20.6,18.4,29.99,NNW,335,2.0,7.0,91,0.00,,,0.00,VWS V14.00,2013-02-03 20:16:00,
2013-02-03 15:21:00,20.5,18.3,30.00,WNW,294,3.0,8.0,91,0.00,,,0.00,VWS V14.00,2013-02-03 20:21:00,
2013-02-03 15:26:00,20.3,18.1,30.00,WNW,282,3.0,8.0,91,0.00,,,0.00,VWS V14.00,2013-02-03 20:26:00,
2013-02-03 15:31:00,20.2,17.7,30.00,WNW,295,4.0,8.0,90,0.00,,,0.00,VWS V14.00,2013-02-03 20:31:00,
2013-02-03 15:36:00,20.1,17.4,30.01,North,350,8.0,9.0,89,0.00,,,0.00,VWS V14.00,2013-02-03 20:36:00,
2013-02-03 15:41:00,20.0,17.0,30.01,WNW,290,8.0,11.0,88,0.00,,,0.00,VWS V14.00,2013-02-03 20:41:00,
2013-02-03 15:46:00,20.0,16.8,30.01,West,259,5.0,11.0,87,0.00,,,0.00,VWS V14.00,2013-02-03 20:46:00,
2013-02-03 15:51:00,20.1,16.9,30.01,WNW,298,4.0,15.0,87,0.00,,,0.00,VWS V14.00,2013-02-03 20:51:00,
2013-02-03 15:56:00,20.0,16.8,30.01,NW,306,3.0,15.0,87,0.00,,,0.00,VWS V14.00,2013-02-03 20:56:00,
2013-02-03 16:01:00,19.9,16.7,30.02,WNW,282,5.0,15.0,87,0.00,,,0.00,VWS V14.00,2013-02-03 21:01:00,
2013-02-03 16:06:00,19.8,16.8,30.01,West,279,5.0,9.0,88,0.00,,,0.00,VWS V14.00,2013-02-03 21:06:00,
2013-02-03 16:11:00,19.8,16.8,30.02,WNW,285,10.0,15.0,88,0.00,,,0.00,VWS V14.00,2013-02-03 21:11:00,
2013-02-03 16:16:00,19.7,16.7,30.02,West,267,5.0,15.0,88,0.00,,,0.00,VWS V14.00,2013-02-03 21:16:00,
2013-02-03 16:21:00,19.6,16.4,30.02,WNW,301,3.0,15.0,87,0.00,,,0.00,VWS V14.00,2013-02-03 21:21:00,
2013-02-03 16:26:00,19.6,16.4,30.02,WNW,284,4.0,15.0,87,0.00,,,0.00,VWS V14.00,2013-02-03 21:26:00,
2013-02-03 16:31:00,19.6,15.8,30.02,WNW,293,6.0,15.0,85,0.00,,,0.00,VWS V14.00,2013-02-03 21:31:00,
2013-02-03 16:36:00,19.6,15.8,30.02,NW,311,3.0,8.0,85,0.00,,,0.00,VWS V14.00,2013-02-03 21:36:00,
2013-02-03 16:41:00,19.6,15.6,30.02,WNW,295,4.0,8.0,84,0.00,,,0.00,VWS V14.00,2013-02-03 21:41:00,
2013-02-03 16:46:00,19.7,15.4,30.03,WNW,301,5.0,10.0,83,0.00,,,0.00,VWS V14.00,2013-02-03 21:46:00,
2013-02-03 16:51:00,19.7,15.4,30.03,WNW,293,4.0,10.0,83,0.00,,,0.00,VWS V14.00,2013-02-03 21:51:00,
2013-02-03 16:56:00,19.7,15.1,30.03,West,264,3.0,10.0,82,0.00,,,0.00,VWS V14.00,2013-02-03 21:56:00,
2013-02-03 17:01:00,19.8,15.2,30.03,NW,311,5.0,10.0,82,0.00,,,0.00,VWS V14.00,2013-02-03 22:01:00,
2013-02-03 17:06:00,19.8,15.2,30.03,WNW,295,5.0,7.0,82,0.00,,,0.00,VWS V14.00,2013-02-03 22:06:00,
2013-02-03 17:11:00,19.8,15.2,30.03,West,281,2.0,7.0,82,0.00,,,0.00,VWS V14.00,2013-02-03 22:11:00,
2013-02-03 17:16:00,19.8,14.9,30.04,West,280,3.0,7.0,81,0.00,,,0.00,VWS V14.00,2013-02-03 22:16:00,
2013-02-03 17:21:00,19.8,14.9,30.03,WNW,288,4.0,8.0,81,0.00,,,0.00,VWS V14.00,2013-02-03 22:21:00,
2013-02-03 17:26:00,19.8,14.9,30.03,WNW,292,5.0,8.0,81,0.00,,,0.00,VWS V14.00,2013-02-03 22:26:00,
2013-02-03 17:31:00,19.8,14.9,30.03,NW,309,4.0,10.0,81,0.00,,,0.00,VWS V14.00,2013-02-03 22:31:00,
2013-02-03 17:36:00,19.8,14.6,30.04,WNW,291,4.0,7.0,80,0.00,,,0.00,VWS V14.00,2013-02-03 22:36:00,
2013-02-03 17:41:00,19.8,14.6,30.04,WNW,287,2.0,7.0,80,0.00,,,0.00,VWS V14.00,2013-02-03 22:41:00,
2013-02-03 17:46:00,19.8,14.4,30.04,NW,304,3.0,8.0,79,0.00,,,0.00,VWS V14.00,2013-02-03 22:46:00,
2013-02-03 17:51:00,19.7,14.3,30.04,WNW,291,3.0,9.0,79,0.00,,,0.00,VWS V14.00,2013-02-03 22:51:00,
2013-02-03 17:56:00,19.7,14.5,30.04,WNW,287,4.0,9.0,80,0.00,,,0.00,VWS V14.00,2013-02-03 22:56:00,
2013-02-03 18:01:00,19.7,14.8,30.04,WNW,291,2.0,9.0,81,0.00,,,0.00,VWS V14.00,2013-02-03 23:01:00,
2013-02-03 18:06:00,19.5,14.6,30.04,West,274,3.0,5.0,81,0.00,,,0.00,VWS V14.00,2013-02-03 23:06:00,
2013-02-03 18:11:00,19.4,14.8,30.04,West,281,1.0,6.0,82,0.00,,,0.00,VWS V14.00,2013-02-03 23:11:00,
2013-02-03 18:16:00,19.3,14.7,30.04,WNW,294,2.0,6.0,82,0.00,,,0.00,VWS V14.00,2013-02-03 23:16:00,
2013-02-03 18:21:00,19.3,14.7,30.04,West,280,2.0,6.0,82,0.00,,,0.00,VWS V14.00,2013-02-03 23:21:00,
2013-02-03 18:26:00,19.3,14.7,30.04,WNW,283,2.0,6.0,82,0.00,,,0.00,VWS V14.00,2013-02-03 23:26:00,
2013-02-03 18:31:00,19.4,14.8,30.04,West,274,1.0,6.0,82,0.00,,,0.00,VWS V14.00,2013-02-03 23:31:00,
2013-02-03 18:36:00,19.3,14.7,30.04,WNW,301,2.0,4.0,82,0.00,,,0.00,VWS V14.00,2013-02-03 23:36:00,
2013-02-03 18:41:00,19.4,14.8,30.05,WNW,283,2.0,4.0,82,0.00,,,0.00,VWS V14.00,2013-02-03 23:41:00,
2013-02-03 18:46:00,19.4,14.8,30.05,West,278,1.0,4.0,82,0.00,,,0.00,VWS V14.00,2013-02-03 23:46:00,
2013-02-03 18:51:00,19.4,14.8,30.05,NW,304,2.0,4.0,82,0.00,,,0.00,VWS V14.00,2013-02-03 23:51:00,
2013-02-03 18:56:00,19.4,14.8,30.05,WNW,283,2.0,4.0,82,0.00,,,0.00,VWS V14.00,2013-02-03 23:56:00,
2013-02-03 19:01:00,19.4,14.8,30.05,WNW,287,2.0,4.0,82,0.00,,,0.00,VWS V14.00,2013-02-04 00:01:00,
2013-02-03 19:06:00,19.4,14.8,30.06,WNW,292,1.0,2.0,82,0.00,,,0.00,VWS V14.00,2013-02-04 00:06:00,
2013-02-03 19:11:00,19.3,14.7,30.05,West,264,0.0,3.0,82,0.00,,,0.00,VWS V14.00,2013-02-04 00:11:00,
2013-02-03 19:16:00,19.3,15.0,30.05,NW,309,1.0,3.0,83,0.00,,,0.00,VWS V14.00,2013-02-04 00:16:00,
2013-02-03 19:21:00,19.2,14.9,30.06,West,271,1.0,3.0,83,0.00,,,0.00,VWS V14.00,2013-02-04 00:21:00,
2013-02-03 19:26:00,19.2,14.9,30.06,West,280,1.0,3.0,83,0.00,,,0.00,VWS V14.00,2013-02-04 00:26:00,
2013-02-03 19:31:00,19.2,14.9,30.06,West,264,0.0,3.0,83,0.00,,,0.00,VWS V14.00,2013-02-04 00:31:00,
2013-02-03 19:36:00,19.2,14.9,30.06,West,263,1.0,2.0,83,0.00,,,0.00,VWS V14.00,2013-02-04 00:36:00,
2013-02-03 19:41:00,19.2,14.9,30.05,West,278,1.0,2.0,83,0.00,,,0.00,VWS V14.00,2013-02-04 00:41:00,
2013-02-03 19:46:00,19.2,14.9,30.05,West,279,1.0,2.0,83,0.00,,,0.00,VWS V14.00,2013-02-04 00:46:00,
2013-02-03 19:51:00,19.3,15.0,30.05,WNW,283,1.0,2.0,83,0.00,,,0.00,VWS V14.00,2013-02-04 00:51:00,
2013-02-03 19:56:00,19.4,15.1,30.06,West,272,4.0,5.0,83,0.00,,,0.00,VWS V14.00,2013-02-04 00:56:00,
2013-02-03 20:01:00,19.4,15.1,30.06,West,277,0.0,5.0,83,0.00,,,0.00,VWS V14.00,2013-02-04 01:01:00,
2013-02-03 20:06:00,19.4,15.1,30.06,WNW,298,0.0,1.0,83,0.00,,,0.00,VWS V14.00,2013-02-04 01:06:00,
2013-02-03 20:11:00,19.4,15.1,30.06,West,262,1.0,2.0,83,0.00,,,0.00,VWS V14.00,2013-02-04 01:11:00,
2013-02-03 20:16:00,19.4,15.1,30.06,WNW,289,1.0,2.0,83,0.00,,,0.00,VWS V14.00,2013-02-04 01:16:00,
2013-02-03 20:21:00,19.3,14.7,30.06,West,270,1.0,3.0,82,0.00,,,0.00,VWS V14.00,2013-02-04 01:21:00,
2013-02-03 20:26:00,19.3,14.7,30.06,West,277,0.0,3.0,82,0.00,,,0.00,VWS V14.00,2013-02-04 01:26:00,
2013-02-03 20:31:00,19.3,14.7,30.06,West,278,0.0,3.0,82,0.00,,,0.00,VWS V14.00,2013-02-04 01:31:00,
2013-02-03 20:36:00,19.2,14.6,30.06,West,277,1.0,1.0,82,0.00,,,0.00,VWS V14.00,2013-02-04 01:36:00,
2013-02-03 20:41:00,19.2,14.6,30.06,WNW,283,1.0,2.0,82,0.00,,,0.00,VWS V14.00,2013-02-04 01:41:00,
2013-02-03 20:46:00,19.2,14.6,30.06,West,274,1.0,2.0,82,0.00,,,0.00,VWS V14.00,2013-02-04 01:46:00,
2013-02-03 20:51:00,19.1,14.5,30.06,West,279,2.0,3.0,82,0.00,,,0.00,VWS V14.00,2013-02-04 01:51:00,
2013-02-03 20:56:00,19.1,14.5,30.06,WNW,300,2.0,6.0,82,0.00,,,0.00,VWS V14.00,2013-02-04 01:56:00,
2013-02-03 21:01:00,19.0,14.4,30.06,West,280,0.0,6.0,82,0.00,,,0.00,VWS V14.00,2013-02-04 02:01:00,
2013-02-03 21:06:00,19.0,14.1,30.06,WNW,283,2.0,3.0,81,0.00,,,0.00,VWS V14.00,2013-02-04 02:06:00,
2013-02-03 21:11:00,18.9,14.0,30.06,WNW,285,1.0,4.0,81,0.00,,,0.00,VWS V14.00,2013-02-04 02:11:00,
2013-02-03 21:16:00,18.9,14.0,30.06,West,280,2.0,4.0,81,0.00,,,0.00,VWS V14.00,2013-02-04 02:16:00,
2013-02-03 21:21:00,18.8,13.9,30.06,West,273,1.0,5.0,81,0.00,,,0.00,VWS V14.00,2013-02-04 02:21:00,
2013-02-03 21:26:00,18.8,13.9,30.06,NW,319,2.0,5.0,81,0.00,,,0.00,VWS V14.00,2013-02-04 02:26:00,
2013-02-03 21:31:00,18.8,13.9,30.06,West,278,1.0,5.0,81,0.00,,,0.00,VWS V14.00,2013-02-04 02:31:00,
2013-02-03 21:36:00,18.7,13.9,30.07,WNW,285,2.0,3.0,81,0.00,,,0.00,VWS V14.00,2013-02-04 02:36:00,
2013-02-03 21:41:00,18.7,13.9,30.07,West,278,1.0,5.0,81,0.00,,,0.00,VWS V14.00,2013-02-04 02:41:00,
2013-02-03 21:46:00,18.7,13.9,30.07,WSW,249,0.0,5.0,81,0.00,,,0.00,VWS V14.00,2013-02-04 02:46:00,
2013-02-03 21:51:00,18.6,13.8,30.07,West,281,1.0,5.0,81,0.00,,,0.00,VWS V14.00,2013-02-04 02:51:00,
2013-02-03 21:56:00,18.5,13.9,30.07,West,278,1.0,5.0,82,0.00,,,0.00,VWS V14.00,2013-02-04 02:56:00,
2013-02-03 22:01:00,18.5,13.9,30.07,West,274,1.0,5.0,82,0.00,,,0.00,VWS V14.00,2013-02-04 03:01:00,
2013-02-03 22:07:00,18.5,13.9,30.07,West,280,1.0,2.0,82,0.00,,,0.00,VWS V14.00,2013-02-04 03:07:00,
2013-02-03 22:12:00,18.5,13.9,30.07,WNW,290,2.0,3.0,82,0.00,,,0.00,VWS V14.00,2013-02-04 03:12:00,
2013-02-03 22:17:00,18.5,13.9,30.07,WSW,256,0.0,5.0,82,0.00,,,0.00,VWS V14.00,2013-02-04 03:17:00,
2013-02-03 22:22:00,18.5,13.9,30.07,WNW,285,1.0,5.0,82,0.00,,,0.00,VWS V14.00,2013-02-04 03:22:00,
2013-02-03 22:27:00,18.5,13.9,30.07,West,271,0.0,5.0,82,0.00,,,0.00,VWS V14.00,2013-02-04 03:27:00,
2013-02-03 22:32:00,18.4,13.8,30.06,WNW,285,1.0,5.0,82,0.00,,,0.00,VWS V14.00,2013-02-04 03:32:00,
2013-02-03 22:37:00,18.4,13.8,30.07,West,278,1.0,2.0,82,0.00,,,0.00,VWS V14.00,2013-02-04 03:37:00,
2013-02-03 22:42:00,18.4,13.8,30.06,WNW,282,1.0,2.0,82,0.00,,,0.00,VWS V14.00,2013-02-04 03:42:00,
2013-02-03 22:47:00,18.4,13.8,30.06,WNW,287,2.0,3.0,82,0.00,,,0.00,VWS V14.00,2013-02-04 03:47:00,
2013-02-03 22:52:00,18.3,13.7,30.06,WNW,285,1.0,3.0,82,0.00,,,0.00,VWS V14.00,2013-02-04 03:52:00,
2013-02-03 22:56:00,18.2,13.6,30.06,WNW,284,2.0,3.0,82,0.00,,,0.00,VWS V14.00,2013-02-04 03:56:00,
2013-02-03 23:01:00,18.2,13.6,30.07,West,278,1.0,3.0,82,0.00,,,0.00,VWS V14.00,2013-02-04 04:01:00,
2013-02-03 23:06:00,18.3,14.0,30.07,WNW,287,2.0,3.0,83,0.00,,,0.00,VWS V14.00,2013-02-04 04:06:00,
2013-02-03 23:11:00,18.4,14.1,30.07,WNW,290,2.0,5.0,83,0.00,,,0.00,VWS V14.00,2013-02-04 04:11:00,
2013-02-03 23:16:00,18.5,13.9,30.08,WNW,303,3.0,6.0,82,0.00,,,0.00,VWS V14.00,2013-02-04 04:16:00,
2013-02-03 23:21:00,18.6,14.0,30.07,West,268,1.0,6.0,82,0.00,,,0.00,VWS V14.00,2013-02-04 04:21:00,
2013-02-03 23:26:00,18.6,14.0,30.08,NW,307,3.0,6.0,82,0.00,,,0.00,VWS V14.00,2013-02-04 04:26:00,
2013-02-03 23:31:00,18.6,14.0,30.07,West,268,0.0,6.0,82,0.00,,,0.00,VWS V14.00,2013-02-04 04:31:00,
2013-02-03 23:37:00,18.6,14.0,30.08,West,260,2.0,2.0,82,0.00,,,0.00,VWS V14.00,2013-02-04 04:37:00,
2013-02-03 23:42:00,18.6,14.0,30.08,West,281,1.0,2.0,82,0.00,,,0.00,VWS V14.00,2013-02-04 04:42:00,
2013-02-03 23:47:00,18.6,14.0,30.08,West,264,1.0,3.0,82,0.00,,,0.00,VWS V14.00,2013-02-04 04:47:00,
2013-02-03 23:52:00,18.6,14.3,30.08,WNW,282,2.0,3.0,83,0.00,,,0.00,VWS V14.00,2013-02-04 04:52:00,
2013-02-03 23:57:00,18.6,14.3,30.08,West,262,2.0,3.0,83,0.00,,,0.00,VWS V14.00,2013-02-04 04:57:00,